createdAt,value
2023-03-17T00:00:11.320Z,22.90
2023-03-17T00:04:11.299Z,22.91
2023-03-17T00:08:11.255Z,22.91
2023-03-17T00:12:11.247Z,22.90
2023-03-17T00:16:18.240Z,22.90
2023-03-17T00:20:11.147Z,22.90
2023-03-17T00:24:11.903Z,22.89
2023-03-17T00:28:11.066Z,22.90
2023-03-17T00:32:11.032Z,22.89
2023-03-17T00:36:10.995Z,22.89
2023-03-17T00:40:18.599Z,22.88
2023-03-17T00:44:11.145Z,22.89
2023-03-17T00:48:18.647Z,22.88
2023-03-17T00:52:11.038Z,22.87
2023-03-17T00:56:11.014Z,22.86
2023-03-17T01:00:10.983Z,22.86
2023-03-17T01:04:18.136Z,22.87
2023-03-17T01:08:10.886Z,22.87
2023-03-17T01:12:10.845Z,22.86
2023-03-17T01:16:10.931Z,22.87
2023-03-17T01:20:10.767Z,22.85
2023-03-17T01:24:18.153Z,22.86
2023-03-17T01:28:10.685Z,22.87
2023-03-17T01:32:10.703Z,22.86
2023-03-17T01:36:10.697Z,22.87
2023-03-17T01:40:10.592Z,22.86
2023-03-17T01:44:19.184Z,22.86
2023-03-17T01:48:10.559Z,22.85
2023-03-17T01:52:10.505Z,22.85
2023-03-17T01:56:10.498Z,22.85
2023-03-17T02:00:10.418Z,22.85
2023-03-17T02:04:10.491Z,22.85
2023-03-17T02:08:10.389Z,22.85
2023-03-17T02:12:10.357Z,22.85
2023-03-17T02:16:10.292Z,22.85
2023-03-17T02:20:10.227Z,22.84
2023-03-17T02:24:10.240Z,22.84
2023-03-17T02:28:10.170Z,22.84
2023-03-17T02:32:10.143Z,22.83
2023-03-17T02:36:10.208Z,22.83
2023-03-17T02:40:10.190Z,22.83
2023-03-17T02:44:10.385Z,22.83
2023-03-17T02:48:10.568Z,22.83
2023-03-17T02:52:10.689Z,22.82
2023-03-17T02:56:10.866Z,22.83
2023-03-17T03:00:11.018Z,22.83
2023-03-17T03:04:11.227Z,22.82
2023-03-17T03:08:11.424Z,22.82
2023-03-17T03:12:11.537Z,22.82
2023-03-17T03:16:11.720Z,22.82
2023-03-17T03:20:11.905Z,22.82
2023-03-17T03:24:12.028Z,22.82
2023-03-17T03:28:12.182Z,22.82
2023-03-17T03:32:12.368Z,22.82
2023-03-17T03:36:12.584Z,22.82
2023-03-17T03:40:12.706Z,22.81
2023-03-17T03:44:12.829Z,22.80
2023-03-17T03:48:13.026Z,22.80
2023-03-17T03:52:13.177Z,22.80
2023-03-17T03:56:13.376Z,22.80
2023-03-17T04:00:13.554Z,22.81
2023-03-17T04:04:13.711Z,22.80
2023-03-17T04:08:13.914Z,22.80
2023-03-17T04:12:14.209Z,22.79
2023-03-17T04:16:14.239Z,22.80
2023-03-17T04:20:14.409Z,22.80
2023-03-17T04:24:14.596Z,22.79
2023-03-17T04:28:15.245Z,22.78
2023-03-17T04:32:15.234Z,22.79
2023-03-17T04:36:15.189Z,22.79
2023-03-17T04:40:15.371Z,22.79
2023-03-17T04:44:15.553Z,22.78
2023-03-17T04:48:15.723Z,22.78
2023-03-17T04:52:15.959Z,22.79
2023-03-17T04:56:16.147Z,22.78
2023-03-17T05:00:16.375Z,22.78
2023-03-17T05:04:28.903Z,22.77
2023-03-17T05:08:17.512Z,22.77
2023-03-17T05:12:16.507Z,22.77
2023-03-17T05:16:16.523Z,22.77
2023-03-17T05:20:16.664Z,22.78
2023-03-17T05:24:16.851Z,22.77
2023-03-17T05:28:17.016Z,22.77
2023-03-17T05:32:17.247Z,22.77
2023-03-17T05:36:17.364Z,22.76
2023-03-17T05:40:17.541Z,22.77
2023-03-17T05:44:17.749Z,22.76
2023-03-17T05:48:17.952Z,22.75
2023-03-17T05:52:18.096Z,22.75
2023-03-17T05:56:18.320Z,22.76
2023-03-17T06:00:18.552Z,22.75
2023-03-17T06:04:18.719Z,22.75
2023-03-17T06:08:18.899Z,22.75
2023-03-17T06:12:19.123Z,22.74
2023-03-17T06:16:19.205Z,22.67
2023-03-17T06:20:19.238Z,22.56
2023-03-17T06:24:19.343Z,22.44
2023-03-17T06:28:19.413Z,22.36
2023-03-17T06:32:21.049Z,22.31
2023-03-17T06:36:19.642Z,22.26
2023-03-17T06:40:19.812Z,22.23
2023-03-17T06:44:19.916Z,22.14
2023-03-17T06:48:19.996Z,22.25
2023-03-17T06:52:20.027Z,22.32
2023-03-17T06:56:29.530Z,22.42
2023-03-17T07:00:21.233Z,22.11
2023-03-17T07:04:20.056Z,21.90
2023-03-17T07:08:20.066Z,22.04
2023-03-17T07:12:20.192Z,22.15
2023-03-17T07:16:20.244Z,22.25
2023-03-17T07:20:20.308Z,22.32
2023-03-17T07:24:20.373Z,22.38
2023-03-17T07:28:20.492Z,22.42
2023-03-17T07:32:20.548Z,22.45
2023-03-17T07:36:20.589Z,22.48
2023-03-17T07:40:20.648Z,22.50
2023-03-17T07:44:20.706Z,22.53
2023-03-17T07:48:20.842Z,22.55
2023-03-17T07:52:20.887Z,22.57
2023-03-17T07:56:20.938Z,22.44
2023-03-17T08:00:21.127Z,22.44
2023-03-17T08:04:21.167Z,22.60
2023-03-17T08:08:21.337Z,22.79
2023-03-17T08:12:21.269Z,22.95
2023-03-17T08:16:21.310Z,23.05
2023-03-17T08:20:21.221Z,23.18
2023-03-17T08:24:21.308Z,23.30
2023-03-17T08:28:21.457Z,23.32
2023-03-17T08:32:21.473Z,23.33
2023-03-17T08:36:21.547Z,23.35
2023-03-17T08:40:21.598Z,23.36
2023-03-17T08:44:21.622Z,23.40
2023-03-17T08:48:21.783Z,23.45
2023-03-17T08:52:21.789Z,23.53
2023-03-17T08:56:21.946Z,23.22
2023-03-17T09:00:22.066Z,22.96
2023-03-17T09:04:21.990Z,23.06
2023-03-17T09:10:49.598Z,23.23
2023-03-17T09:14:49.533Z,23.33
2023-03-17T09:18:49.513Z,23.44
2023-03-17T09:22:49.650Z,23.52
2023-03-17T09:26:49.566Z,23.55
2023-03-17T09:30:49.454Z,23.61
2023-03-17T09:34:51.520Z,23.65
2023-03-17T09:38:49.344Z,23.67
2023-03-17T09:42:49.370Z,23.62
2023-03-17T09:46:49.595Z,23.56
2023-03-17T09:50:49.673Z,23.58
2023-03-17T09:54:49.812Z,23.64
2023-03-17T09:58:51.346Z,23.47
2023-03-17T10:02:49.965Z,23.53
2023-03-17T10:06:50.038Z,23.64
2023-03-17T10:10:50.082Z,23.57
2023-03-17T10:14:51.357Z,23.37
2023-03-17T10:18:50.317Z,23.19
2023-03-17T10:22:50.453Z,23.05
2023-03-17T10:26:50.527Z,22.95
2023-03-17T10:30:50.659Z,22.90
2023-03-17T10:34:50.771Z,22.83
2023-03-17T10:38:50.982Z,22.79
2023-03-17T10:42:51.145Z,22.78
2023-03-17T10:46:51.624Z,22.69
2023-03-17T10:50:52.884Z,22.77
2023-03-17T10:54:51.558Z,22.87
2023-03-17T10:58:51.745Z,22.96
2023-03-17T11:02:51.757Z,23.02
2023-03-17T11:06:51.822Z,23.06
2023-03-17T11:10:52.334Z,23.08
2023-03-17T11:14:51.956Z,23.10
2023-03-17T11:18:52.010Z,23.12
2023-03-17T11:22:52.097Z,23.12
2023-03-17T11:26:52.133Z,23.12
2023-03-17T11:30:52.217Z,23.11
2023-03-17T11:34:52.292Z,23.11
2023-03-17T11:38:52.312Z,23.10
2023-03-17T11:42:52.376Z,23.10
2023-03-17T11:46:52.546Z,23.09
2023-03-17T11:50:52.563Z,23.07
2023-03-17T11:54:54.374Z,23.04
2023-03-17T11:58:52.565Z,23.05
2023-03-17T12:02:52.528Z,23.07
2023-03-17T12:06:52.488Z,23.09
2023-03-17T12:10:52.437Z,23.10
2023-03-17T12:14:52.394Z,23.12
2023-03-17T12:18:52.386Z,23.10
2023-03-17T12:22:52.310Z,23.11
2023-03-17T12:26:52.383Z,23.12
2023-03-17T12:30:52.312Z,23.11
2023-03-17T12:34:52.207Z,23.11
2023-03-17T12:38:52.216Z,23.11
2023-03-17T12:42:52.133Z,23.13
2023-03-17T12:46:52.105Z,23.11
2023-03-17T12:50:52.063Z,23.12
2023-03-17T12:54:52.017Z,23.11
2023-03-17T12:58:51.987Z,23.05
2023-03-17T13:02:52.001Z,23.10
2023-03-17T13:06:51.920Z,23.06
2023-03-17T13:10:51.922Z,23.10
2023-03-17T13:14:51.856Z,23.12
2023-03-17T13:18:51.818Z,23.12
2023-03-17T13:22:51.800Z,23.12
2023-03-17T13:26:54.327Z,23.11
2023-03-17T13:30:51.680Z,23.09
2023-03-17T13:34:51.675Z,23.10
2023-03-17T13:39:05.105Z,23.09
2023-03-17T13:42:52.599Z,23.09
2023-03-17T13:46:51.616Z,23.09
2023-03-17T13:50:51.535Z,23.07
2023-03-17T13:54:51.526Z,23.07
2023-03-17T13:58:51.434Z,23.05
2023-03-17T14:02:58.910Z,23.06
2023-03-17T14:06:51.493Z,23.05
2023-03-17T14:10:51.458Z,23.06
2023-03-17T14:14:51.415Z,23.05
2023-03-17T14:18:51.369Z,23.06
2023-03-17T14:22:58.453Z,23.05
2023-03-17T14:26:51.315Z,23.04
2023-03-17T14:30:51.300Z,23.01
2023-03-17T14:34:51.216Z,23.01
2023-03-17T14:38:51.194Z,23.01
2023-03-17T14:42:51.171Z,23.02
2023-03-17T14:46:51.104Z,23.01
2023-03-17T14:50:51.101Z,23.01
2023-03-17T14:54:51.025Z,23.00
2023-03-17T14:58:51.014Z,23.02
2023-03-17T15:02:51.101Z,23.01
2023-03-17T15:06:51.194Z,23.01
2023-03-17T15:10:51.241Z,23.01
2023-03-17T15:14:51.315Z,23.00
2023-03-17T15:18:51.422Z,23.00
2023-03-17T15:22:51.527Z,23.00
2023-03-17T15:26:51.650Z,22.99
2023-03-17T15:30:52.000Z,22.99
2023-03-17T15:34:51.821Z,22.98
2023-03-17T15:38:52.006Z,22.99
2023-03-17T15:42:52.011Z,22.98
2023-03-17T15:46:52.103Z,22.97
2023-03-17T15:50:52.262Z,22.98
2023-03-17T15:54:52.322Z,22.98
2023-03-17T15:58:52.615Z,22.97
2023-03-17T16:02:52.541Z,22.98
2023-03-17T16:06:52.676Z,22.97
2023-03-17T16:10:52.768Z,22.96
2023-03-17T16:14:52.867Z,22.96
2023-03-17T16:18:52.995Z,22.96
2023-03-17T16:22:53.043Z,22.96
2023-03-17T16:26:53.146Z,22.96
2023-03-17T16:30:53.323Z,22.95
2023-03-17T16:34:53.442Z,22.96
2023-03-17T16:38:53.519Z,22.95
2023-03-17T16:42:53.657Z,22.95
2023-03-17T16:46:53.784Z,22.96
2023-03-17T16:50:53.911Z,22.96
2023-03-17T16:54:54.044Z,22.97
2023-03-17T16:58:54.108Z,22.97
2023-03-17T17:02:54.521Z,22.96
2023-03-17T17:06:54.315Z,22.97
2023-03-17T17:10:54.399Z,22.96
2023-03-17T17:14:54.510Z,22.96
2023-03-17T17:18:54.632Z,22.96
2023-03-17T17:22:54.763Z,22.96
2023-03-17T17:26:54.845Z,22.96
2023-03-17T17:30:54.965Z,22.94
2023-03-17T17:34:55.102Z,22.94
2023-03-17T17:38:55.219Z,22.94
2023-03-17T17:43:02.512Z,22.95
2023-03-17T17:46:55.369Z,22.95
2023-03-17T17:50:55.248Z,22.94
2023-03-17T17:54:55.227Z,22.95
2023-03-17T17:58:55.201Z,22.94
2023-03-17T18:02:55.119Z,22.94
2023-03-17T18:06:55.087Z,22.94
2023-03-17T18:10:55.074Z,22.94
2023-03-17T18:15:02.571Z,22.94
2023-03-17T18:18:55.026Z,22.93
2023-03-17T18:22:55.005Z,22.94
2023-03-17T18:26:54.981Z,22.94
2023-03-17T18:30:54.948Z,22.94
2023-03-17T18:35:02.041Z,22.93
2023-03-17T18:38:54.924Z,22.93
2023-03-17T18:42:54.833Z,22.94
2023-03-17T18:46:54.801Z,22.94
2023-03-17T18:50:54.753Z,22.94
2023-03-17T18:54:54.780Z,22.93
2023-03-17T18:58:54.693Z,22.93
2023-03-17T19:02:54.725Z,22.94
2023-03-17T19:06:54.667Z,22.94
2023-03-17T19:10:54.733Z,22.94
2023-03-17T19:14:54.886Z,22.93
2023-03-17T19:18:54.977Z,22.94
2023-03-17T19:22:55.058Z,22.93
2023-03-17T19:26:55.157Z,22.93
2023-03-17T19:30:55.256Z,22.92
2023-03-17T19:34:55.388Z,22.91
2023-03-17T19:38:55.447Z,22.92
2023-03-17T19:42:55.583Z,22.93
2023-03-17T19:46:55.684Z,22.93
2023-03-17T19:50:55.768Z,22.93
2023-03-17T19:54:55.898Z,22.93
2023-03-17T19:58:55.979Z,22.94
2023-03-17T20:02:56.117Z,22.94
2023-03-17T20:06:56.232Z,22.94
2023-03-17T20:10:56.352Z,22.94
2023-03-17T20:14:56.442Z,22.92
2023-03-17T20:18:56.580Z,22.93
2023-03-17T20:22:56.642Z,22.93
2023-03-17T20:26:56.782Z,22.92
2023-03-17T20:30:56.905Z,22.92
2023-03-17T20:34:56.955Z,22.92
2023-03-17T20:38:57.076Z,22.93
2023-03-17T20:42:57.165Z,22.94
2023-03-17T20:46:57.257Z,22.93
2023-03-17T20:50:57.350Z,22.91
2023-03-17T20:54:57.443Z,22.91
2023-03-17T20:58:57.577Z,22.90
2023-03-17T21:02:57.706Z,22.92
2023-03-17T21:06:57.837Z,22.93
2023-03-17T21:10:57.916Z,22.92
2023-03-17T21:14:58.034Z,22.93
2023-03-17T21:18:58.182Z,22.94
2023-03-17T21:22:58.305Z,22.93
2023-03-17T21:26:58.374Z,22.94
2023-03-17T21:30:58.504Z,22.94
2023-03-17T21:34:58.644Z,22.93
2023-03-17T21:38:58.779Z,22.92
2023-03-17T21:42:59.129Z,22.94
2023-03-17T21:46:59.028Z,22.92
2023-03-17T21:50:59.174Z,22.93
2023-03-17T21:54:59.309Z,22.93
2023-03-17T21:58:59.460Z,22.93
2023-03-17T22:03:07.176Z,22.93
2023-03-17T22:06:59.551Z,22.93
2023-03-17T22:10:59.524Z,22.92
2023-03-17T22:14:59.458Z,22.91
2023-03-17T22:18:59.477Z,22.92
2023-03-17T22:22:59.427Z,22.92
2023-03-17T22:26:59.549Z,22.92
2023-03-17T22:30:59.680Z,22.91
2023-03-17T22:34:59.791Z,22.90
2023-03-17T22:38:59.920Z,22.91
2023-03-17T22:43:00.037Z,22.90
2023-03-17T22:47:00.203Z,22.91
2023-03-17T22:51:00.334Z,22.91
2023-03-17T22:55:00.476Z,22.92
2023-03-17T22:59:00.666Z,22.91
2023-03-17T23:03:00.761Z,22.90
2023-03-17T23:07:00.936Z,22.91
2023-03-17T23:11:01.108Z,22.90
2023-03-17T23:15:01.212Z,22.90
2023-03-17T23:19:01.288Z,22.91
2023-03-17T23:23:01.460Z,22.91
2023-03-17T23:27:01.609Z,22.88
2023-03-17T23:31:01.742Z,22.90
2023-03-17T23:35:01.894Z,22.89
2023-03-17T23:39:02.004Z,22.90
2023-03-17T23:43:02.141Z,22.91
2023-03-17T23:47:09.288Z,22.90
2023-03-17T23:51:02.230Z,22.89
2023-03-17T23:55:02.201Z,22.88
2023-03-17T23:59:02.208Z,22.87
